Time;durP1;ratioP1;P1;durP2;ratioP2;P2;SDS_P1;SDS_P2;PMS_P1;PMS_P2;Temp;Humidity;BMP_temperature;BMP_pressure;BME280_temperature;BME280_humidity;BME280_pressure;Samples;Min_cycle;Max_cycle;Signal;HPM_P1;HPM_P2
2021/10/23 00:02:03;;;;;;;;;;;6.10;1.00;;;;;;5048890;28;20518;-73
2021/10/23 00:04:28;;;;;;;;;;;6.10;1.00;;;;;;5067406;28;19913;-69
2021/10/23 00:06:54;;;;;;;;;;;6.00;1.00;;;;;;5050004;28;19938;-69
2021/10/23 00:09:19;;;;;;;;;;;6.00;1.00;;;;;;5049727;28;19920;-69
2021/10/23 00:11:45;;;;;;;;;;;6.00;1.00;;;;;;5052972;28;20017;-69
2021/10/23 00:14:10;;;;;;;;;;;6.00;1.00;;;;;;5077933;22;20023;-73
2021/10/23 00:16:36;;;;;;;;;;;6.00;1.00;;;;;;5048831;28;19912;-73
2021/10/23 00:19:01;;;;;;;;;;;6.00;1.00;;;;;;5052099;28;19916;-73
2021/10/23 00:21:27;;;;;;;;;;;6.00;1.00;;;;;;5051628;28;19943;-73
2021/10/23 00:23:52;;;;;;;;;;;6.00;1.00;;;;;;5048618;28;19936;-73
2021/10/23 00:26:18;;;;;;;;;;;6.00;1.00;;;;;;5033779;28;20196;-73
2021/10/23 00:28:43;;;;;;;;;;;6.10;1.00;;;;;;5035805;28;19913;-73
2021/10/23 00:31:10;;;;;;;;;;;6.10;1.00;;;;;;5036792;28;19917;-73
2021/10/23 00:33:36;;;;;;;;;;;6.10;1.00;;;;;;5034882;28;19976;-73
2021/10/23 00:36:02;;;;;;;;;;;6.10;6.50;;;;;;5030560;28;19944;-73
2021/10/23 00:38:27;;;;;;;;;;;6.10;1.00;;;;;;5029563;28;19921;-73
2021/10/23 00:40:53;;;;;;;;;;;6.10;17.80;;;;;;5046050;28;19912;-73
2021/10/23 00:43:19;;;;;;;;;;;6.10;10.00;;;;;;5045625;28;19916;-73
2021/10/23 00:45:44;;;;;;;;;;;6.00;4.80;;;;;;5048030;28;19920;-73
2021/10/23 00:48:10;;;;;;;;;;;6.00;24.90;;;;;;5036585;28;19916;-73
2021/10/23 00:50:36;;;;;;;;;;;6.00;65.20;;;;;;5038194;28;19939;-73
2021/10/23 00:53:02;;;;;;;;;;;6.00;99.90;;;;;;5031968;28;19921;-73
2021/10/23 00:55:28;;;;;;;;;;;5.90;99.90;;;;;;5033061;28;20316;-73
2021/10/23 00:57:54;;;;;;;;;;;5.90;99.90;;;;;;5033090;28;20011;-73
2021/10/23 01:00:19;;;;;;;;;;;5.80;99.90;;;;;;5032870;28;19913;-73
2021/10/23 01:02:45;;;;;;;;;;;5.80;99.90;;;;;;5038589;28;19958;-73
2021/10/23 01:05:10;;;;;;;;;;;5.80;99.90;;;;;;5034452;28;19979;-73
2021/10/23 01:07:36;;;;;;;;;;;5.70;99.90;;;;;;5047366;28;19948;-73
2021/10/23 01:10:06;;;;;;;;;;;5.70;99.90;;;;;;5049547;28;19916;-73
2021/10/23 01:12:32;;;;;;;;;;;5.70;99.90;;;;;;5051318;28;19921;-73
2021/10/23 01:14:57;;;;;;;;;;;5.80;99.90;;;;;;5047860;28;19924;-73
2021/10/23 01:17:23;;;;;;;;;;;5.80;99.90;;;;;;5048890;28;20011;-73
2021/10/23 01:19:53;;;;;;;;;;;5.80;99.90;;;;;;5044759;28;19913;-73
2021/10/23 01:22:28;;;;;;;;;;;5.80;99.90;;;;;;5031520;28;20258;-73
2021/10/23 01:24:54;;;;;;;;;;;5.90;99.90;;;;;;5044650;28;19920;-73
2021/10/23 01:27:20;;;;;;;;;;;5.90;99.90;;;;;;5031996;28;19917;-73
2021/10/23 01:29:45;;;;;;;;;;;5.90;99.90;;;;;;5033983;28;19999;-73
2021/10/23 01:32:11;;;;;;;;;;;5.90;99.90;;;;;;5035286;28;20296;-73
2021/10/23 01:34:36;;;;;;;;;;;5.90;99.90;;;;;;5044200;28;20315;-73
2021/10/23 01:37:02;;;;;;;;;;;5.90;99.90;;;;;;5050918;28;19917;-73
2021/10/23 01:39:28;;;;;;;;;;;5.90;99.90;;;;;;5050952;28;19959;-73
2021/10/23 01:41:54;;;;;;;;;;;5.80;99.90;;;;;;5046217;28;20017;-73
2021/10/23 01:44:22;;;;;;;;;;;5.80;99.90;;;;;;5034544;28;19987;-73
2021/10/23 01:46:48;;;;;;;;;;;5.80;1.00;;;;;;5032392;28;20319;-73
2021/10/23 01:49:13;;;;;;;;;;;5.80;1.00;;;;;;5031648;28;19931;-73
2021/10/23 01:51:39;;;;;;;;;;;5.70;1.00;;;;;;5032609;28;19917;-73
2021/10/23 01:54:05;;;;;;;;;;;5.70;1.00;;;;;;5029818;28;19913;-73
2021/10/23 01:56:31;;;;;;;;;;;5.70;1.00;;;;;;5039828;28;20296;-73
2021/10/23 01:58:57;;;;;;;;;;;5.70;1.00;;;;;;5050152;28;19913;-73
2021/10/23 02:01:22;;;;;;;;;;;5.70;1.00;;;;;;5049601;28;19923;-73
2021/10/23 02:03:48;;;;;;;;;;;5.70;1.00;;;;;;5038347;28;19913;-73
2021/10/23 02:06:14;;;;;;;;;;;5.70;1.00;;;;;;5035782;28;19916;-73
2021/10/23 02:08:39;;;;;;;;;;;5.60;1.00;;;;;;5050589;28;19913;-73
2021/10/23 02:11:05;;;;;;;;;;;5.60;1.00;;;;;;5042786;28;20070;-73
2021/10/23 02:13:31;;;;;;;;;;;5.60;1.00;;;;;;5048757;28;20039;-73
2021/10/23 02:15:56;;;;;;;;;;;5.70;1.00;;;;;;5049963;28;19999;-73
2021/10/23 02:18:22;;;;;;;;;;;5.70;1.00;;;;;;5040399;28;19924;-73
2021/10/23 02:20:47;;;;;;;;;;;5.70;1.00;;;;;;5042208;28;20372;-73
2021/10/23 02:23:13;;;;;;;;;;;5.80;1.00;;;;;;5033670;28;19928;-73
2021/10/23 02:25:38;;;;;;;;;;;5.80;1.00;;;;;;5049919;28;19952;-73
2021/10/23 02:28:04;;;;;;;;;;;5.80;1.00;;;;;;5046748;28;20581;-73
2021/10/23 02:30:29;;;;;;;;;;;5.80;1.00;;;;;;5038378;28;19917;-73
2021/10/23 02:32:55;;;;;;;;;;;5.80;1.00;;;;;;5030759;28;19923;-73
2021/10/23 02:35:20;;;;;;;;;;;5.80;1.00;;;;;;5031002;28;19917;-73
2021/10/23 02:37:46;;;;;;;;;;;5.70;1.00;;;;;;5034293;28;19913;-73
2021/10/23 02:40:11;;;;;;;;;;;5.80;1.00;;;;;;5044807;28;19921;-73
2021/10/23 02:42:37;;;;;;;;;;;5.80;1.00;;;;;;5030047;28;19925;-73
2021/10/23 02:45:04;;;;;;;;;;;5.80;1.00;;;;;;5031140;28;19917;-73
2021/10/23 02:47:29;;;;;;;;;;;5.80;1.00;;;;;;5044893;28;19947;-72
2021/10/23 02:49:55;;;;;;;;;;;5.90;1.00;;;;;;5042757;28;20353;-73
2021/10/23 02:52:20;;;;;;;;;;;5.90;1.00;;;;;;5043950;28;19939;-73
2021/10/23 02:54:46;;;;;;;;;;;5.90;1.00;;;;;;5049705;28;20035;-73
2021/10/23 02:57:11;;;;;;;;;;;5.90;1.00;;;;;;5047795;28;20053;-73
2021/10/23 02:59:39;;;;;;;;;;;5.90;1.00;;;;;;5049677;28;19952;-73
2021/10/23 03:02:05;;;;;;;;;;;5.90;1.00;;;;;;5039264;28;19966;-73
2021/10/23 03:04:30;;;;;;;;;;;5.90;1.00;;;;;;5037894;28;19913;-73
2021/10/23 03:06:56;;;;;;;;;;;5.90;1.00;;;;;;5040475;28;20623;-73
2021/10/23 03:09:22;;;;;;;;;;;5.90;1.00;;;;;;5048066;28;19985;-73
2021/10/23 03:11:47;;;;;;;;;;;5.80;1.00;;;;;;5043831;28;19958;-73
2021/10/23 03:14:13;;;;;;;;;;;5.80;16.50;;;;;;5028713;28;20004;-73
2021/10/23 03:16:38;;;;;;;;;;;5.70;99.90;;;;;;5029704;28;20357;-73
2021/10/23 03:19:04;;;;;;;;;;;5.70;99.90;;;;;;5034228;28;19948;-73
2021/10/23 03:21:29;;;;;;;;;;;5.70;99.90;;;;;;5031474;28;19951;-73
2021/10/23 03:23:55;;;;;;;;;;;5.70;1.00;;;;;;5037188;28;20234;-73
2021/10/23 03:26:20;;;;;;;;;;;5.70;1.00;;;;;;5042228;28;19924;-73
2021/10/23 03:28:46;;;;;;;;;;;5.70;1.00;;;;;;5033892;28;19910;-73
2021/10/23 03:31:11;;;;;;;;;;;5.70;1.00;;;;;;5029466;28;20016;-73
2021/10/23 03:33:37;;;;;;;;;;;5.80;1.00;;;;;;5043721;28;19987;-73
2021/10/23 03:36:03;;;;;;;;;;;5.70;1.00;;;;;;5036693;28;19970;-72
2021/10/23 03:38:28;;;;;;;;;;;5.70;1.00;;;;;;5031329;28;19920;-73
2021/10/23 03:40:54;;;;;;;;;;;5.70;1.00;;;;;;5042222;28;19913;-73
2021/10/23 03:43:19;;;;;;;;;;;5.80;1.00;;;;;;5047808;28;19943;-73
2021/10/23 03:45:45;;;;;;;;;;;5.70;1.00;;;;;;5032795;28;20366;-72
2021/10/23 03:48:10;;;;;;;;;;;5.70;1.00;;;;;;5045319;28;19920;-72
2021/10/23 03:50:36;;;;;;;;;;;5.70;1.00;;;;;;5048427;28;19917;-73
2021/10/23 03:53:01;;;;;;;;;;;5.70;99.90;;;;;;5039924;28;20011;-73
2021/10/23 03:55:27;;;;;;;;;;;5.70;99.90;;;;;;5048720;28;19924;-73
2021/10/23 03:57:52;;;;;;;;;;;5.70;99.90;;;;;;5048385;28;20038;-73
2021/10/23 04:00:18;;;;;;;;;;;5.60;99.90;;;;;;5038651;28;19936;-74
2021/10/23 04:02:45;;;;;;;;;;;5.70;99.90;;;;;;5040001;28;19931;-72
2021/10/23 04:05:10;;;;;;;;;;;5.60;99.90;;;;;;5033794;28;19913;-73
2021/10/23 04:07:36;;;;;;;;;;;5.50;1.00;;;;;;5033622;28;19913;-73
2021/10/23 04:10:02;;;;;;;;;;;5.50;1.00;;;;;;5038761;28;19917;-72
2021/10/23 04:12:28;;;;;;;;;;;5.40;99.90;;;;;;5028123;28;19917;-72
2021/10/23 04:14:53;;;;;;;;;;;5.40;99.90;;;;;;5028528;28;19994;-72
2021/10/23 04:17:19;;;;;;;;;;;5.30;1.00;;;;;;5029660;28;19921;-73
2021/10/23 04:19:44;;;;;;;;;;;5.30;1.00;;;;;;5033494;28;20435;-73
2021/10/23 04:22:10;;;;;;;;;;;5.30;99.90;;;;;;5037758;28;20012;-72
2021/10/23 04:24:36;;;;;;;;;;;5.30;29.10;;;;;;5037008;28;20315;-73
2021/10/23 04:27:02;;;;;;;;;;;5.30;99.90;;;;;;5046432;28;20316;-73
2021/10/23 04:29:27;;;;;;;;;;;5.30;99.90;;;;;;5038666;28;20008;-73
2021/10/23 04:31:53;;;;;;;;;;;5.30;99.90;;;;;;5027326;28;19922;-73
2021/10/23 04:34:18;;;;;;;;;;;5.40;99.90;;;;;;5027932;28;19921;-73
2021/10/23 04:36:44;;;;;;;;;;;5.40;99.90;;;;;;5033563;28;19955;-73
2021/10/23 04:39:09;;;;;;;;;;;5.40;90.50;;;;;;5047390;28;19952;-73
2021/10/23 04:41:36;;;;;;;;;;;5.50;53.50;;;;;;5034501;28;19923;-73
2021/10/23 04:44:02;;;;;;;;;;;5.50;96.70;;;;;;5037711;28;19924;-73
2021/10/23 04:46:27;;;;;;;;;;;5.50;2.00;;;;;;5046450;28;19916;-73
2021/10/23 04:48:52;;;;;;;;;;;5.50;1.00;;;;;;5043880;28;20396;-73
2021/10/23 04:51:18;;;;;;;;;;;5.60;1.00;;;;;;5036419;28;20048;-73
2021/10/23 04:53:43;;;;;;;;;;;5.50;1.00;;;;;;5038023;28;20545;-73
2021/10/23 04:56:09;;;;;;;;;;;5.60;1.00;;;;;;5037857;28;19964;-73
2021/10/23 04:58:38;;;;;;;;;;;5.60;99.90;;;;;;5043269;28;19917;-74
2021/10/23 05:01:03;;;;;;;;;;;5.60;99.90;;;;;;5047588;28;19920;-73
2021/10/23 05:03:29;;;;;;;;;;;5.60;1.00;;;;;;5039571;28;19917;-73
2021/10/23 05:05:55;;;;;;;;;;;5.70;20.50;;;;;;5028666;28;19925;-73
2021/10/23 05:08:21;;;;;;;;;;;5.70;1.00;;;;;;5042288;28;19912;-73
2021/10/23 05:10:47;;;;;;;;;;;5.80;1.00;;;;;;5031633;28;19917;-73
2021/10/23 05:13:13;;;;;;;;;;;5.80;99.90;;;;;;5038148;28;20258;-73
2021/10/23 05:15:38;;;;;;;;;;;5.80;99.90;;;;;;5047793;28;20388;-72
2021/10/23 05:18:04;;;;;;;;;;;5.70;99.90;;;;;;5036010;28;19946;-73
2021/10/23 05:20:30;;;;;;;;;;;5.70;1.00;;;;;;5030130;28;19913;-73
2021/10/23 05:22:55;;;;;;;;;;;5.70;1.00;;;;;;5031254;28;20381;-72
2021/10/23 05:25:21;;;;;;;;;;;5.80;99.90;;;;;;5045868;28;19917;-72
2021/10/23 05:27:46;;;;;;;;;;;5.80;99.90;;;;;;5047817;28;20352;-73
2021/10/23 05:30:12;;;;;;;;;;;5.70;1.00;;;;;;5034870;28;19929;-73
2021/10/23 05:32:37;;;;;;;;;;;5.70;1.00;;;;;;5031915;28;20554;-73
2021/10/23 05:35:03;;;;;;;;;;;5.70;1.00;;;;;;5034302;28;19944;-73
2021/10/23 05:37:29;;;;;;;;;;;5.60;1.00;;;;;;5039549;28;20439;-73
2021/10/23 05:39:55;;;;;;;;;;;5.60;99.90;;;;;;5032070;28;19939;-73
2021/10/23 05:42:20;;;;;;;;;;;5.70;99.90;;;;;;5033077;28;20032;-73
2021/10/23 05:44:46;;;;;;;;;;;5.70;99.90;;;;;;5048541;28;20051;-73
2021/10/23 05:47:11;;;;;;;;;;;5.70;99.90;;;;;;5049647;28;20380;-73
2021/10/23 05:49:37;;;;;;;;;;;5.70;1.00;;;;;;5049161;28;19925;-73
2021/10/23 05:52:02;;;;;;;;;;;5.70;1.00;;;;;;5031403;28;19917;-73
2021/10/23 05:54:28;;;;;;;;;;;5.70;1.00;;;;;;5039610;28;20385;-73
2021/10/23 05:56:53;;;;;;;;;;;5.70;1.00;;;;;;5048177;28;19921;-73
2021/10/23 05:59:21;;;;;;;;;;;5.80;1.00;;;;;;5052280;28;19913;-73
2021/10/23 06:01:49;;;;;;;;;;;5.80;99.90;;;;;;5050704;28;19913;-73
2021/10/23 06:04:15;;;;;;;;;;;5.80;1.00;;;;;;5044266;28;19917;-72
2021/10/23 06:06:41;;;;;;;;;;;5.90;99.90;;;;;;5049436;28;19924;-73
2021/10/23 06:09:06;;;;;;;;;;;5.80;99.90;;;;;;5047538;28;20022;-73
2021/10/23 06:11:32;;;;;;;;;;;5.80;99.90;;;;;;5044694;28;20281;-73
2021/10/23 06:16:23;;;;;;;;;;;5.90;42.50;;;;;;5071017;22;19929;-68
2021/10/23 06:18:48;;;;;;;;;;;6.00;25.30;;;;;;5068604;28;19948;-69
2021/10/23 06:21:14;;;;;;;;;;;6.00;1.00;;;;;;5055571;28;20395;-70
2021/10/23 06:23:40;;;;;;;;;;;6.00;1.00;;;;;;5064500;28;19920;-70
2021/10/23 06:26:05;;;;;;;;;;;6.10;1.00;;;;;;5068496;28;20566;-68
2021/10/23 06:28:36;;;;;;;;;;;6.20;1.00;;;;;;5064844;28;19916;-69
2021/10/23 06:31:01;;;;;;;;;;;6.30;99.90;;;;;;5057599;28;19924;-68
2021/10/23 06:33:27;;;;;;;;;;;6.30;1.00;;;;;;5068801;28;20327;-68
2021/10/23 06:35:52;;;;;;;;;;;6.30;26.80;;;;;;5064794;28;20019;-69
2021/10/23 06:38:18;;;;;;;;;;;6.30;17.60;;;;;;5059160;28;19924;-68
2021/10/23 06:40:43;;;;;;;;;;;6.40;1.00;;;;;;5071204;28;20598;-68
2021/10/23 06:43:09;;;;;;;;;;;6.30;1.00;;;;;;5066787;28;20031;-69
2021/10/23 06:45:35;;;;;;;;;;;6.30;23.80;;;;;;5061553;28;19923;-70
2021/10/23 06:48:01;;;;;;;;;;;6.20;99.90;;;;;;5060025;28;19930;-70
2021/10/23 06:50:26;;;;;;;;;;;6.30;99.90;;;;;;5065303;28;19913;-69
2021/10/23 06:52:52;;;;;;;;;;;6.40;99.90;;;;;;5064730;28;19976;-69
2021/10/23 06:55:17;;;;;;;;;;;6.50;1.00;;;;;;5061631;28;19909;-69
2021/10/23 06:57:46;;;;;;;;;;;6.40;1.00;;;;;;5067773;28;19934;-69
2021/10/23 07:00:12;;;;;;;;;;;6.50;1.00;;;;;;5068037;28;20077;-69
2021/10/23 07:02:41;;;;;;;;;;;6.60;1.00;;;;;;5066265;28;19912;-69
2021/10/23 07:05:08;;;;;;;;;;;6.80;1.00;;;;;;5064576;28;20364;-69
2021/10/23 07:07:33;;;;;;;;;;;6.80;99.90;;;;;;5068657;28;20034;-69
2021/10/23 07:09:59;;;;;;;;;;;6.80;99.90;;;;;;5069773;28;19991;-70
2021/10/23 07:12:24;;;;;;;;;;;6.90;99.90;;;;;;5068951;28;19923;-69
2021/10/23 07:14:50;;;;;;;;;;;6.90;99.90;;;;;;5069187;28;19957;-69
2021/10/23 07:17:16;;;;;;;;;;;6.90;1.00;;;;;;5069033;28;20579;-68
2021/10/23 07:19:41;;;;;;;;;;;7.00;1.00;;;;;;5069133;28;20000;-73
2021/10/23 07:22:07;;;;;;;;;;;7.10;1.00;;;;;;5069097;28;20002;-68
2021/10/23 07:24:32;;;;;;;;;;;7.10;1.00;;;;;;5069648;28;20326;-68
2021/10/23 07:26:58;;;;;;;;;;;7.10;1.00;;;;;;5069495;28;19913;-68
2021/10/23 07:29:23;;;;;;;;;;;7.20;1.00;;;;;;5063961;28;19912;-69
2021/10/23 07:31:49;;;;;;;;;;;7.20;1.00;;;;;;5068031;28;19913;-68
2021/10/23 07:34:14;;;;;;;;;;;7.20;1.00;;;;;;5068968;28;19909;-70
2021/10/23 07:36:40;;;;;;;;;;;7.20;1.00;;;;;;5069747;28;19915;-69
2021/10/23 07:39:05;;;;;;;;;;;7.30;1.00;;;;;;5069446;28;19912;-69
2021/10/23 07:41:31;;;;;;;;;;;7.40;1.00;;;;;;5069861;28;19947;-68
2021/10/23 07:43:56;;;;;;;;;;;7.60;1.00;;;;;;5068399;28;20230;-69
2021/10/23 07:46:22;;;;;;;;;;;8.00;1.00;;;;;;5068667;28;19909;-69
2021/10/23 07:48:47;;;;;;;;;;;8.60;99.90;;;;;;5068846;28;20027;-69
2021/10/23 07:51:14;;;;;;;;;;;9.30;1.00;;;;;;5069326;28;19916;-69
2021/10/23 07:53:40;;;;;;;;;;;10.40;99.90;;;;;;5066667;28;19912;-68
2021/10/23 07:56:05;;;;;;;;;;;11.90;99.90;;;;;;5060562;28;19924;-68
2021/10/23 07:58:31;;;;;;;;;;;14.50;99.90;;;;;;5047184;28;19943;-72
2021/10/23 08:00:57;;;;;;;;;;;20.30;99.90;;;;;;5051803;28;20164;-69
2021/10/23 08:03:23;;;;;;;;;;;23.70;99.90;;;;;;5044892;28;19935;-68
2021/10/23 08:05:49;;;;;;;;;;;26.30;99.90;;;;;;5047193;28;19916;-68
2021/10/23 08:08:15;;;;;;;;;;;25.90;99.90;;;;;;5047544;28;19982;-70
2021/10/23 08:10:40;;;;;;;;;;;25.30;99.90;;;;;;5060439;28;19920;-68
2021/10/23 08:13:06;;;;;;;;;;;27.20;99.90;;;;;;5045724;28;19928;-67
2021/10/23 08:15:32;;;;;;;;;;;27.00;99.90;;;;;;5064337;28;19916;-67
2021/10/23 08:17:58;;;;;;;;;;;28.50;99.90;;;;;;5056618;28;19948;-67
2021/10/23 08:20:26;;;;;;;;;;;30.90;99.90;;;;;;5048600;28;19924;-68
2021/10/23 08:22:52;;;;;;;;;;;32.30;99.90;;;;;;5064747;28;19916;-67
2021/10/23 08:25:17;;;;;;;;;;;34.10;99.90;;;;;;5051763;28;20633;-68
2021/10/23 08:27:44;;;;;;;;;;;34.60;99.90;;;;;;5048831;28;19912;-68
2021/10/23 08:30:10;;;;;;;;;;;35.30;99.90;;;;;;5054086;28;19971;-68
2021/10/23 08:32:38;;;;;;;;;;;36.30;99.90;;;;;;5064514;28;19913;-69
2021/10/23 08:35:04;;;;;;;;;;;37.30;99.80;;;;;;5065906;28;20384;-69
2021/10/23 08:37:29;;;;;;;;;;;38.10;91.60;;;;;;5065297;28;19912;-68
2021/10/23 08:39:55;;;;;;;;;;;37.20;72.80;;;;;;5065219;28;19923;-68
2021/10/23 08:42:20;;;;;;;;;;;36.60;58.20;;;;;;5063980;28;20010;-68
2021/10/23 08:44:46;;;;;;;;;;;37.70;48.50;;;;;;5055421;28;19916;-69
2021/10/23 08:47:13;;;;;;;;;;;38.10;39.00;;;;;;5047485;28;20011;-69
2021/10/23 08:49:39;;;;;;;;;;;37.90;28.20;;;;;;5064821;28;20434;-68
2021/10/23 08:52:04;;;;;;;;;;;38.10;22.60;;;;;;5062691;28;19977;-68
2021/10/23 08:54:33;;;;;;;;;;;38.50;15.80;;;;;;5064045;28;19924;-69
2021/10/23 08:56:59;;;;;;;;;;;38.30;9.80;;;;;;5060798;28;19913;-67
2021/10/23 08:59:28;;;;;;;;;;;38.90;4.60;;;;;;5064804;28;19992;-68
2021/10/23 09:01:57;;;;;;;;;;;39.40;1.00;;;;;;5048040;28;19913;-69
2021/10/23 09:04:24;;;;;;;;;;;39.90;1.00;;;;;;5061561;28;20335;-66
2021/10/23 09:06:50;;;;;;;;;;;40.20;1.00;;;;;;5064068;28;20030;-66
2021/10/23 09:09:15;;;;;;;;;;;40.00;1.00;;;;;;5065615;28;20030;-66
2021/10/23 09:11:42;;;;;;;;;;;40.00;1.00;;;;;;5069065;28;20266;-67
2021/10/23 09:14:21;;;;;;;;;;;39.30;1.00;;;;;;5069250;28;20015;-67
2021/10/23 09:16:47;;;;;;;;;;;38.40;1.00;;;;;;5071395;28;20257;-66
2021/10/23 09:19:14;;;;;;;;;;;36.50;1.00;;;;;;5054208;28;19916;-67
2021/10/23 09:21:39;;;;;;;;;;;36.40;1.00;;;;;;5060908;28;19913;-66
2021/10/23 09:24:21;;;;;;;;;;;34.00;1.00;;;;;;5053534;28;19999;-67
2021/10/23 09:26:46;;;;;;;;;;;35.30;1.00;;;;;;5058513;28;20010;-67
2021/10/23 09:29:19;;;;;;;;;;;36.80;1.00;;;;;;5066401;28;20011;-67
2021/10/23 09:31:48;;;;;;;;;;;37.80;1.00;;;;;;5070443;28;19999;-66
2021/10/23 09:34:15;;;;;;;;;;;38.30;1.00;;;;;;5070085;28;20360;-71
2021/10/23 09:36:44;;;;;;;;;;;37.50;1.00;;;;;;5071448;28;20500;-66
2021/10/23 09:39:10;;;;;;;;;;;34.80;1.00;;;;;;5071184;28;19912;-68
2021/10/23 09:41:36;;;;;;;;;;;35.30;1.00;;;;;;5071760;28;19912;-68
2021/10/23 09:44:14;;;;;;;;;;;35.40;1.00;;;;;;5069823;28;20366;-67
2021/10/23 09:46:52;;;;;;;;;;;36.60;1.00;;;;;;5070394;28;19955;-68
2021/10/23 09:49:18;;;;;;;;;;;37.30;1.00;;;;;;5071137;28;20365;-68
2021/10/23 09:51:43;;;;;;;;;;;36.20;1.00;;;;;;5071564;28;19918;-74
2021/10/23 09:54:13;;;;;;;;;;;36.40;1.00;;;;;;5071043;28;19991;-68
2021/10/23 09:56:48;;;;;;;;;;;35.40;1.00;;;;;;5071288;28;20367;-68
2021/10/23 09:59:24;;;;;;;;;;;33.80;1.00;;;;;;5070929;28;19919;-68
2021/10/23 10:01:50;;;;;;;;;;;33.90;1.00;;;;;;5069752;28;19990;-71
2021/10/23 10:04:16;;;;;;;;;;;34.00;1.00;;;;;;5070022;28;20403;-68
2021/10/23 10:06:49;;;;;;;;;;;34.80;1.00;;;;;;5070652;28;19920;-68
2021/10/23 10:09:18;;;;;;;;;;;34.40;1.00;;;;;;5070463;28;19916;-69
2021/10/23 10:11:46;;;;;;;;;;;33.80;1.00;;;;;;5069530;28;20053;-70
2021/10/23 10:14:12;;;;;;;;;;;33.20;1.00;;;;;;5051418;28;19916;-68
2021/10/23 10:16:41;;;;;;;;;;;32.70;1.00;;;;;;5069448;28;19908;-68
2021/10/23 10:19:07;;;;;;;;;;;31.20;1.00;;;;;;5069067;28;19936;-70
2021/10/23 10:21:34;;;;;;;;;;;30.60;1.00;;;;;;5062596;28;19913;-71
2021/10/23 10:24:00;;;;;;;;;;;29.70;1.00;;;;;;5052635;28;20399;-70
2021/10/23 10:26:28;;;;;;;;;;;28.60;1.00;;;;;;5070224;28;20013;-69
2021/10/23 10:29:14;;;;;;;;;;;27.90;1.00;;;;;;5066021;28;19912;-69
2021/10/23 10:31:52;;;;;;;;;;;27.30;1.00;;;;;;5060935;28;20357;-68
2021/10/23 10:34:36;;;;;;;;;;;26.60;1.00;;;;;;5069633;28;19912;-68
2021/10/23 10:37:27;;;;;;;;;;;26.00;1.00;;;;;;5057535;28;19927;-68
2021/10/23 10:40:27;;;;;;;;;;;25.20;1.00;;;;;;5067902;28;20019;-72
2021/10/23 10:42:56;;;;;;;;;;;25.40;1.00;;;;;;5053900;28;20057;-71
2021/10/23 10:45:28;;;;;;;;;;;25.30;1.00;;;;;;5068055;28;19913;-68
2021/10/23 10:48:12;;;;;;;;;;;25.20;1.00;;;;;;5068725;28;19916;-69
2021/10/23 10:50:57;;;;;;;;;;;25.80;1.00;;;;;;5050263;28;20309;-68
2021/10/23 10:53:23;;;;;;;;;;;25.70;1.00;;;;;;5057850;28;19920;-68
2021/10/23 10:55:55;;;;;;;;;;;25.50;1.00;;;;;;5050031;28;19916;-68
2021/10/23 10:58:39;;;;;;;;;;;25.90;1.00;;;;;;5049769;28;19939;-69
2021/10/23 11:01:08;;;;;;;;;;;25.60;1.00;;;;;;5037345;28;20130;-68
2021/10/23 11:03:35;;;;;;;;;;;25.20;1.00;;;;;;5061317;28;19917;-68
2021/10/23 11:06:19;;;;;;;;;;;24.30;1.00;;;;;;5051126;28;19916;-68
2021/10/23 11:08:45;;;;;;;;;;;22.50;1.00;;;;;;5068611;28;20310;-68
2021/10/23 11:11:10;;;;;;;;;;;21.90;1.00;;;;;;5068386;28;19927;-69
2021/10/23 11:13:45;;;;;;;;;;;21.30;1.00;;;;;;5068422;28;19935;-69
2021/10/23 11:16:24;;;;;;;;;;;21.00;1.00;;;;;;5068470;28;19927;-69
2021/10/23 11:18:59;;;;;;;;;;;20.30;1.00;;;;;;5049721;28;20007;-68
2021/10/23 11:21:25;;;;;;;;;;;19.90;1.00;;;;;;5058005;28;20438;-69
2021/10/23 11:23:51;;;;;;;;;;;19.90;1.00;;;;;;5065890;28;19920;-69
2021/10/23 11:26:17;;;;;;;;;;;19.40;1.00;;;;;;5050886;28;20219;-68
2021/10/23 11:28:43;;;;;;;;;;;19.50;1.00;;;;;;5067132;28;19992;-68
2021/10/23 11:31:16;;;;;;;;;;;19.50;1.00;;;;;;5060180;28;20359;-67
2021/10/23 11:33:42;;;;;;;;;;;20.00;1.00;;;;;;5053054;28;20354;-68
2021/10/23 11:36:14;;;;;;;;;;;19.50;1.00;;;;;;5055118;28;20058;-67
2021/10/23 11:38:40;;;;;;;;;;;19.30;1.00;;;;;;5068936;28;19971;-69
2021/10/23 11:41:05;;;;;;;;;;;19.60;1.00;;;;;;5067246;28;19959;-67
2021/10/23 11:43:33;;;;;;;;;;;20.30;1.00;;;;;;5065870;28;20000;-68
2021/10/23 11:46:00;;;;;;;;;;;21.00;1.00;;;;;;5057204;28;19917;-68
2021/10/23 11:48:25;;;;;;;;;;;21.30;1.00;;;;;;5050358;28;19920;-68
2021/10/23 11:50:52;;;;;;;;;;;21.30;1.00;;;;;;5059816;28;19912;-70
2021/10/23 11:53:18;;;;;;;;;;;20.90;1.00;;;;;;5064291;28;19913;-68
2021/10/23 11:55:45;;;;;;;;;;;20.60;1.00;;;;;;5066427;28;20284;-68
2021/10/23 11:58:15;;;;;;;;;;;20.20;1.00;;;;;;5067043;28;19924;-69
2021/10/23 12:00:42;;;;;;;;;;;19.40;1.00;;;;;;5065075;28;19920;-68
2021/10/23 12:03:09;;;;;;;;;;;18.70;1.00;;;;;;5066322;28;20008;-68
2021/10/23 12:05:36;;;;;;;;;;;18.60;1.00;;;;;;5063094;28;20341;-68
2021/10/23 12:08:13;;;;;;;;;;;18.30;1.00;;;;;;5068228;28;19913;-70
2021/10/23 12:10:58;;;;;;;;;;;18.10;1.00;;;;;;5060592;28;19913;-68
2021/10/23 12:13:23;;;;;;;;;;;17.40;1.00;;;;;;5062036;28;19916;-68
2021/10/23 12:15:58;;;;;;;;;;;16.70;1.00;;;;;;5064809;28;20361;-67
2021/10/23 12:18:28;;;;;;;;;;;16.20;1.00;;;;;;5055461;28;20007;-70
2021/10/23 12:20:54;;;;;;;;;;;15.80;1.00;;;;;;5048779;28;19913;-70
2021/10/23 12:23:38;;;;;;;;;;;15.50;1.00;;;;;;5065378;28;20004;-71
2021/10/23 12:26:04;;;;;;;;;;;15.40;1.00;;;;;;5049236;28;20020;-70
2021/10/23 12:28:29;;;;;;;;;;;15.40;1.00;;;;;;5054601;28;20563;-70
2021/10/23 12:30:55;;;;;;;;;;;15.30;1.00;;;;;;5048540;28;20018;-68
2021/10/23 12:33:21;;;;;;;;;;;15.50;1.00;;;;;;5047506;28;20003;-68
2021/10/23 12:35:47;;;;;;;;;;;15.60;1.00;;;;;;5049523;28;20328;-71
2021/10/23 12:38:12;;;;;;;;;;;15.30;1.00;;;;;;5067688;28;19917;-70
2021/10/23 12:40:39;;;;;;;;;;;15.20;1.00;;;;;;5067157;28;20031;-70
2021/10/23 12:43:06;;;;;;;;;;;15.20;1.00;;;;;;5060025;28;19928;-70
2021/10/23 12:45:36;;;;;;;;;;;15.20;1.00;;;;;;5063042;28;19916;-72
2021/10/23 12:48:04;;;;;;;;;;;15.10;1.00;;;;;;5055429;28;20360;-71
2021/10/23 12:50:29;;;;;;;;;;;14.80;1.00;;;;;;5066869;28;19916;-71
2021/10/23 12:52:55;;;;;;;;;;;14.60;1.00;;;;;;5080536;28;19912;-71
2021/10/23 12:55:21;;;;;;;;;;;14.60;1.00;;;;;;5060223;28;20655;-70
2021/10/23 12:57:47;;;;;;;;;;;14.90;1.00;;;;;;5058008;28;19913;-71
2021/10/23 13:00:14;;;;;;;;;;;15.00;1.00;;;;;;5056820;28;19920;-70
2021/10/23 13:02:40;;;;;;;;;;;15.30;2.60;;;;;;5062179;28;19927;-71
2021/10/23 13:05:06;;;;;;;;;;;15.80;4.50;;;;;;5059823;28;19913;-71
2021/10/23 13:07:32;;;;;;;;;;;16.50;7.20;;;;;;5072134;28;20295;-71
2021/10/23 13:09:57;;;;;;;;;;;17.30;8.00;;;;;;5071814;28;19920;-71
2021/10/23 13:12:23;;;;;;;;;;;18.00;9.50;;;;;;5064825;28;19913;-69
2021/10/23 13:14:48;;;;;;;;;;;18.40;10.60;;;;;;5058322;28;19999;-71
2021/10/23 13:17:14;;;;;;;;;;;18.10;10.80;;;;;;5057219;28;19920;-71
2021/10/23 13:19:40;;;;;;;;;;;17.50;10.10;;;;;;5070388;28;19917;-71
2021/10/23 13:22:06;;;;;;;;;;;16.90;10.60;;;;;;5068978;28;20396;-70
2021/10/23 13:24:31;;;;;;;;;;;16.50;11.00;;;;;;5066027;28;19916;-71
2021/10/23 13:26:57;;;;;;;;;;;16.00;11.70;;;;;;5063881;28;19926;-73
2021/10/23 13:29:22;;;;;;;;;;;15.90;13.00;;;;;;5062443;28;19995;-73
2021/10/23 13:31:48;;;;;;;;;;;15.80;14.90;;;;;;5051004;28;20344;-72
2021/10/23 13:34:13;;;;;;;;;;;15.50;15.40;;;;;;5069164;28;19916;-73
2021/10/23 13:36:39;;;;;;;;;;;15.30;16.80;;;;;;5069919;28;20230;-73
2021/10/23 13:39:04;;;;;;;;;;;15.10;17.30;;;;;;5060810;28;19962;-72
2021/10/23 13:41:30;;;;;;;;;;;15.10;18.70;;;;;;5051544;28;20003;-70
2021/10/23 13:43:56;;;;;;;;;;;15.20;19.70;;;;;;5066866;28;19939;-71
2021/10/23 13:46:21;;;;;;;;;;;15.30;20.40;;;;;;5070265;28;19999;-72
2021/10/23 13:48:47;;;;;;;;;;;15.30;22.10;;;;;;5052515;28;20304;-72
2021/10/23 13:51:12;;;;;;;;;;;15.20;22.20;;;;;;5070721;28;19917;-71
2021/10/23 13:53:38;;;;;;;;;;;15.00;22.90;;;;;;5055814;28;20016;-71
2021/10/23 13:56:04;;;;;;;;;;;14.90;23.20;;;;;;5051332;28;19920;-73
2021/10/23 13:58:32;;;;;;;;;;;14.80;24.10;;;;;;5050496;28;19913;-71
2021/10/23 14:00:57;;;;;;;;;;;14.90;24.90;;;;;;5051835;28;19913;-72
2021/10/23 14:03:23;;;;;;;;;;;14.90;24.70;;;;;;5058552;28;19920;-71
2021/10/23 14:05:53;;;;;;;;;;;14.90;25.70;;;;;;5054486;28;19920;-70
2021/10/23 14:08:21;;;;;;;;;;;15.00;26.80;;;;;;5050935;28;19917;-70
2021/10/23 14:10:49;;;;;;;;;;;15.00;26.80;;;;;;5051846;28;21434;-68
2021/10/23 14:13:14;;;;;;;;;;;14.70;27.50;;;;;;5052230;28;19962;-72
2021/10/23 14:15:41;;;;;;;;;;;14.20;28.80;;;;;;5050625;28;20759;-71
2021/10/23 14:18:10;;;;;;;;;;;13.90;31.50;;;;;;5062470;28;19912;-72
2021/10/23 14:20:37;;;;;;;;;;;13.80;32.30;;;;;;5052899;28;19924;-72
2021/10/23 14:23:05;;;;;;;;;;;13.50;33.70;;;;;;5060097;28;19916;-70
2021/10/23 14:25:31;;;;;;;;;;;13.20;34.50;;;;;;5056744;28;20011;-71
2021/10/23 14:27:57;;;;;;;;;;;12.90;36.70;;;;;;5054688;28;20633;-71
2021/10/23 14:30:25;;;;;;;;;;;12.80;38.80;;;;;;5061371;28;19919;-70
2021/10/23 14:32:52;;;;;;;;;;;12.70;39.80;;;;;;5033582;28;19924;-69